ROMMA est une association bénévole à but non lucratif. Votre soutien est indispensable : ADHERER à ROMMA ou FAIRE un DON

Saint-Martin-d'Hères - (38, Isère)

Vallée du Grésivaudan (220 m)   Longitude: 05° 45' 05" E   Latitude: 45° 10' 02" N Station partenaire n°4
 

Détail journalier du     <<     >>

Température Precipitation Humidité Pression Vent Dir Rafale Dir. rafale Ensol.
Heure (°C) (mm) (%) (hPa) (km/h) (km/h) (min)
01:00 14.4085101600---0
02:00 13.9086101600---0
03:00 13.0088101600---0
04:00 12.7089101600---0
05:00 12.6089101600---0
06:00 12.4090101500---0
07:00 12.2091101600---0
08:00 11.4091101600---0
09:00 11.1093101600---0
10:00 11.7092101702SSO0
11:00 13.5089101700---0
12:00 18.5066101608ONO50
13:00 19.505810161NO8NNO60
14:00 20.805410152NO11NO60
15:00 21.40531014010NO30
16:00 23.00491014010NNO60
17:00 23.104910141NO10NNO60
18:00 21.3062101400---10
19:00 17.7071101400---0
20:00 17.1074101502ESE0
21:00 16.1076101506S0
22:00 14.9080101600---0
23:00 13.7084101700---0
minuit 12.7088101700---0

Graphique du 18-10-2018

 

Serveur OMMA